Time;durP1;ratioP1;P1;durP2;ratioP2;P2;SDS_P1;SDS_P2;PMS_P1;PMS_P2;Temp;Humidity;BMP_temperature;BMP_pressure;BME280_temperature;BME280_humidity;BME280_pressure;Samples;Min_cycle;Max_cycle;Signal;HPM_P1;HPM_P2
2023/01/04 00:01:17;;;;;;;4.30;1.80;;;;;;;10.14;68.55;101939.28;5103125;28;20513;-60
2023/01/04 00:03:45;;;;;;;7.00;1.52;;;;;;;10.14;68.61;101936.59;5102515;28;20122;-60
2023/01/04 00:06:16;;;;;;;6.18;1.40;;;;;;;10.15;68.83;101930.22;5104795;28;20420;-61
2023/01/04 00:08:44;;;;;;;7.57;2.22;;;;;;;10.15;68.58;101919.47;5099729;28;20135;-61
2023/01/04 00:11:14;;;;;;;4.45;1.60;;;;;;;10.15;68.96;101913.25;5105034;28;20048;-58
2023/01/04 00:13:42;;;;;;;5.13;2.13;;;;;;;10.15;68.73;101921.31;5104224;28;20115;-61
2023/01/04 00:16:14;;;;;;;4.32;1.73;;;;;;;10.14;69.19;101915.13;5103661;28;20056;-61
2023/01/04 00:18:42;;;;;;;6.10;1.88;;;;;;;10.13;68.95;101908.09;5090454;28;20150;-61
2023/01/04 00:21:12;;;;;;;5.15;1.67;;;;;;;10.16;69.12;101912.25;5095540;28;20127;-59
2023/01/04 00:23:42;;;;;;;3.17;1.45;;;;;;;10.14;69.11;101890.94;5105107;28;20522;-60
2023/01/04 00:26:10;;;;;;;5.93;1.92;;;;;;;10.15;69.13;101891.78;5099864;28;20048;-61
2023/01/04 00:28:39;;;;;;;7.18;2.45;;;;;;;10.13;69.21;101891.97;5099710;28;20119;-62
2023/01/04 00:31:09;;;;;;;6.18;1.67;;;;;;;10.13;69.40;101875.84;5105099;28;20104;-61
2023/01/04 00:33:38;;;;;;;5.15;1.77;;;;;;;10.12;69.72;101874.19;5092653;28;20052;-62
2023/01/04 00:36:09;;;;;;;5.43;1.77;;;;;;;10.11;69.83;101869.84;5104448;28;20044;-61
2023/01/04 00:38:37;;;;;;;2.67;1.25;;;;;;;10.11;69.44;101861.78;5102634;28;20044;-61
2023/01/04 00:41:06;;;;;;;6.00;1.30;;;;;;;10.10;69.72;101869.00;5104360;28;20105;-61
2023/01/04 00:43:34;;;;;;;6.03;1.60;;;;;;;10.09;69.55;101858.47;5104552;28;20063;-61
2023/01/04 00:46:02;;;;;;;4.25;1.35;;;;;;;10.10;69.72;101854.75;5101934;28;20040;-61
2023/01/04 00:48:30;;;;;;;4.55;1.60;;;;;;;10.10;70.05;101854.75;5104492;28;20048;-61
2023/01/04 00:51:03;;;;;;;4.82;1.92;;;;;;;10.11;69.84;101853.72;5105042;28;20048;-60
2023/01/04 00:53:31;;;;;;;3.95;1.40;;;;;;;10.10;69.91;101852.06;5094852;28;20094;-61
2023/01/04 00:56:00;;;;;;;4.75;1.52;;;;;;;10.09;69.86;101845.84;5103327;28;20054;-60
2023/01/04 00:58:28;;;;;;;4.63;1.83;;;;;;;10.10;70.05;101842.16;5102960;28;20060;-61
2023/01/04 01:00:56;;;;;;;4.28;1.23;;;;;;;10.11;70.14;101834.91;5096415;28;20044;-60
2023/01/04 01:03:24;;;;;;;3.17;1.60;;;;;;;10.11;70.12;101832.25;5102922;28;20048;-61
2023/01/04 01:05:52;;;;;;;5.47;2.13;;;;;;;10.11;70.19;101819.63;5104189;28;20105;-57
2023/01/04 01:08:26;;;;;;;3.55;1.65;;;;;;;10.18;69.90;101843.03;5096673;28;20078;-61
2023/01/04 01:10:55;;;;;;;4.97;2.25;;;;;;;10.15;70.41;101822.75;5094366;28;20044;-59
2023/01/04 01:13:23;;;;;;;7.35;1.63;;;;;;;10.15;70.46;101816.56;5104269;28;20298;-58
2023/01/04 01:15:51;;;;;;;4.07;1.60;;;;;;;10.14;70.23;101823.78;5098575;28;20095;-62
2023/01/04 01:18:19;;;;;;;6.00;1.67;;;;;;;10.16;70.42;101821.75;5103340;28;20055;-59
2023/01/04 01:20:47;;;;;;;4.43;1.30;;;;;;;10.16;70.55;101813.69;5103890;28;20150;-61
2023/01/04 01:23:15;;;;;;;5.32;1.13;;;;;;;10.16;70.50;101818.22;5098949;28;20052;-57
2023/01/04 01:25:44;;;;;;;2.78;1.25;;;;;;;10.16;70.64;101818.22;5101869;28;20119;-61
2023/01/04 01:28:12;;;;;;;5.60;1.48;;;;;;;10.14;70.74;101818.41;5104400;28;20048;-60
2023/01/04 01:30:41;;;;;;;1.83;1.23;;;;;;;10.14;70.65;101822.97;5099016;28;20040;-61
2023/01/04 01:33:10;;;;;;;4.07;1.58;;;;;;;10.14;70.58;101815.72;5103969;28;20526;-59
2023/01/04 01:35:38;;;;;;;3.25;1.35;;;;;;;10.15;70.51;101809.34;5103468;28;20076;-61
2023/01/04 01:38:06;;;;;;;4.25;1.25;;;;;;;10.14;71.12;101813.03;5101362;28;20131;-60
2023/01/04 01:40:34;;;;;;;3.13;1.08;;;;;;;10.14;70.52;101799.63;5102906;28;20068;-61
2023/01/04 01:43:03;;;;;;;2.58;1.27;;;;;;;10.14;70.81;101801.47;5103925;28;20083;-61
2023/01/04 01:45:33;;;;;;;4.55;1.50;;;;;;;10.16;70.97;101796.72;5101987;28;20044;-61
2023/01/04 01:48:10;;;;;;;3.95;1.30;;;;;;;10.14;70.99;101796.94;5101276;28;20100;-61
2023/01/04 01:50:44;;;;;;;3.53;1.30;;;;;;;10.14;70.94;101791.56;5103534;28;20055;-61
2023/01/04 01:53:12;;;;;;;1.80;1.10;;;;;;;10.13;70.79;101787.22;5093257;28;20497;-58
2023/01/04 01:55:41;;;;;;;4.20;1.35;;;;;;;10.11;70.75;101790.09;5101043;28;20056;-62
2023/01/04 01:58:18;;;;;;;4.82;1.75;;;;;;;10.03;71.37;101774.13;5100700;28;20130;-61
2023/01/04 02:00:45;;;;;;;5.75;1.30;;;;;;;10.14;71.50;101788.03;5101243;28;20127;-60
2023/01/04 02:03:18;;;;;;;2.35;0.85;;;;;;;10.15;71.09;101792.38;5104126;28;20134;-61
2023/01/04 02:05:49;;;;;;;3.95;0.98;;;;;;;10.14;71.21;101783.50;5103808;28;20146;-60
2023/01/04 02:08:21;;;;;;;2.30;1.00;;;;;;;10.14;71.37;101788.03;5102199;28;20136;-61
2023/01/04 02:10:49;;;;;;;5.95;1.42;;;;;;;10.14;71.16;101779.97;5102025;28;20044;-60
2023/01/04 02:13:22;;;;;;;3.70;1.48;;;;;;;10.13;71.18;101779.16;5101175;28;20047;-60
2023/01/04 02:16:02;;;;;;;3.10;0.90;;;;;;;10.14;71.22;101774.59;5098278;28;20052;-61
2023/01/04 02:18:34;;;;;;;3.40;1.20;;;;;;;10.15;71.29;101790.53;5101439;28;20534;-61
2023/01/04 02:21:07;;;;;;;2.20;1.10;;;;;;;10.15;71.39;101782.47;5094191;28;20055;-60
2023/01/04 02:24:10;;;;;;;3.10;1.42;;;;;;;10.16;71.47;101777.94;5101364;28;20054;-59
2023/01/04 02:27:19;;;;;;;1.20;0.70;;;;;;;10.16;71.40;101778.75;5100243;28;20044;-61
2023/01/04 02:30:30;;;;;;;3.45;1.23;;;;;;;10.16;71.42;101769.88;5042064;28;20113;-60
2023/01/04 02:33:15;;;;;;;2.75;1.27;;;;;;;10.17;71.93;101787.66;5028485;28;20049;-59
2023/01/04 02:35:53;;;;;;;2.13;0.90;;;;;;;10.16;71.75;101777.94;5038938;28;20072;-61
2023/01/04 02:38:28;;;;;;;3.50;1.80;;;;;;;10.15;71.79;101777.09;5044490;28;20080;-61
2023/01/04 02:41:05;;;;;;;1.73;0.80;;;;;;;10.15;72.14;101782.47;5045972;28;20053;-61
2023/01/04 02:46:36;;;;;;;4.65;1.08;;;;;;;10.16;71.79;101762.66;5044797;28;20110;-61
2023/01/04 02:51:50;;;;;;;1.80;0.80;;;;;;;10.17;71.63;101744.66;5039766;28;20046;-59
2023/01/04 02:54:23;;;;;;;1.58;0.80;;;;;;;10.16;71.58;101743.84;5044110;28;20126;-61
2023/01/04 02:57:17;;;;;;;2.90;0.93;;;;;;;10.15;72.00;101739.50;5043744;28;20076;-61
2023/01/04 03:00:02;;;;;;;1.33;0.80;;;;;;;10.18;71.69;101740.97;5041911;28;20045;-61
2023/01/04 03:08:39;;;;;;;3.47;0.88;;;;;;;10.22;71.92;101710.84;5101888;28;20043;-61
2023/01/04 03:12:30;;;;;;;1.02;0.70;;;;;;;10.19;72.09;101711.22;5103634;28;20067;-60
2023/01/04 03:13:59;;;;;;;0.60;0.60;;;;;;;10.20;71.85;101712.06;5091836;28;20044;-60
2023/01/04 03:16:29;;;;;;;2.50;1.08;;;;;;;10.20;72.32;101714.75;5101581;28;20072;-54
2023/01/04 03:19:03;;;;;;;1.33;0.60;;;;;;;10.19;72.11;101700.47;5099530;28;20059;-60
2023/01/04 03:21:32;;;;;;;1.00;0.80;;;;;;;10.25;72.17;101683.59;5099000;28;20074;-62
2023/01/04 03:35:41;;;;;;;1.65;0.68;;;;;;;10.27;72.33;101689.59;5045925;28;20045;-61
2023/01/04 03:49:37;;;;;;;0.93;0.60;;;;;;;10.24;72.58;101676.56;5037148;28;20054;-60
2023/01/04 03:52:07;;;;;;;1.95;0.70;;;;;;;10.23;72.40;101674.91;5030825;28;20056;-52
2023/01/04 03:54:39;;;;;;;2.80;0.63;;;;;;;10.25;72.98;101655.88;5041039;28;20076;-61
2023/01/04 03:57:09;;;;;;;1.63;0.70;;;;;;;10.24;72.54;101656.91;5043870;28;20055;-62
2023/01/04 03:59:41;;;;;;;0.50;0.50;;;;;;;10.24;72.79;101656.91;5041132;28;20055;-62
2023/01/04 04:02:12;;;;;;;0.55;0.55;;;;;;;10.25;72.85;101639.78;5042147;28;20085;-60
2023/01/04 04:10:13;;;;;;;0.88;0.70;;;;;;;10.24;72.71;101640.78;5090842;28;20144;-59
2023/01/04 04:12:41;;;;;;;0.93;0.65;;;;;;;10.23;73.27;101650.72;5101401;28;20155;-61
2023/01/04 04:15:09;;;;;;;1.88;0.75;;;;;;;10.23;73.05;101647.19;5103547;28;20051;-60
2023/01/04 04:17:37;;;;;;;0.80;0.60;;;;;;;10.23;73.16;101639.13;5098626;28;20182;-61
2023/01/04 04:20:06;;;;;;;1.35;0.70;;;;;;;10.22;72.86;101632.94;5103082;28;20059;-61
2023/01/04 04:22:34;;;;;;;1.08;0.40;;;;;;;10.24;72.93;101630.06;5105214;28;20078;-61
2023/01/04 04:25:02;;;;;;;1.90;0.70;;;;;;;10.25;72.87;101626.34;5101468;28;20079;-53
2023/01/04 04:27:31;;;;;;;0.98;0.77;;;;;;;10.26;73.44;101620.75;5105461;28;20054;-61
2023/01/04 04:29:59;;;;;;;0.55;0.52;;;;;;;10.27;73.11;101624.28;5107887;28;20107;-60
2023/01/04 04:32:27;;;;;;;1.42;0.70;;;;;;;10.27;73.05;101625.09;5104306;28;20060;-61
2023/01/04 04:34:55;;;;;;;2.53;1.20;;;;;;;10.27;73.24;101619.72;5098898;28;20055;-60
2023/01/04 04:37:24;;;;;;;0.70;0.50;;;;;;;10.28;73.04;101612.50;5105416;28;20047;-61
2023/01/04 04:39:51;;;;;;;1.17;0.70;;;;;;;10.20;73.18;101578.59;5103038;28;20060;-58
2023/01/04 04:42:18;;;;;;;2.10;0.80;;;;;;;10.27;73.15;101598.25;5098625;28;20156;-58
2023/01/04 04:44:47;;;;;;;1.23;1.00;;;;;;;10.29;73.24;101596.19;5090075;28;20080;-61
2023/01/04 04:47:15;;;;;;;1.52;0.80;;;;;;;10.29;73.20;101592.66;5103034;28;20052;-60
2023/01/04 04:49:43;;;;;;;1.35;0.60;;;;;;;10.30;73.20;101587.09;5101558;28;20044;-62
2023/01/04 04:52:11;;;;;;;1.38;0.75;;;;;;;10.31;73.00;101587.91;5105081;28;20047;-62
2023/01/04 04:54:39;;;;;;;1.10;0.70;;;;;;;10.32;73.15;101584.19;5103709;28;20048;-61
2023/01/04 04:57:06;;;;;;;1.00;0.85;;;;;;;10.31;73.08;101595.97;5104177;28;20062;-61
2023/01/04 04:59:36;;;;;;;3.58;0.80;;;;;;;10.32;73.35;101581.53;5118723;28;20098;-58
2023/01/04 05:02:05;;;;;;;1.27;0.85;;;;;;;10.32;73.32;101576.16;5108545;28;20058;-60
2023/01/04 05:04:34;;;;;;;2.03;0.70;;;;;;;10.34;73.29;101579.47;5105805;28;20069;-60
2023/01/04 05:07:01;;;;;;;1.63;0.80;;;;;;;10.34;73.39;101574.09;5098289;28;20047;-61
2023/01/04 05:09:37;;;;;;;0.90;0.70;;;;;;;10.33;73.15;101575.94;5104484;28;20087;-61
2023/01/04 05:14:51;;;;;;;2.58;0.93;;;;;;;10.31;73.44;101578.00;5098319;28;20052;-57
2023/01/04 05:17:20;;;;;;;2.13;1.15;;;;;;;10.32;73.57;101570.78;5102722;28;20082;-61
2023/01/04 05:19:48;;;;;;;2.78;0.90;;;;;;;10.33;73.74;101575.13;5100890;28;20058;-61
2023/01/04 05:22:15;;;;;;;1.13;0.65;;;;;;;10.33;73.72;101567.88;5104747;28;20059;-62
2023/01/04 05:24:43;;;;;;;3.97;0.88;;;;;;;10.34;73.55;101566.03;5107986;28;20506;-61
2023/01/04 05:27:11;;;;;;;2.25;1.00;;;;;;;10.35;73.46;101565.00;5103474;28;20083;-57
2023/01/04 05:32:31;;;;;;;1.83;0.90;;;;;;;10.36;73.73;101558.59;5021799;28;20073;-61
2023/01/04 05:34:58;;;;;;;3.03;1.15;;;;;;;10.36;73.51;101555.91;5025186;28;20493;-60
2023/01/04 05:37:26;;;;;;;2.28;0.82;;;;;;;10.35;73.51;101549.69;5020062;28;20054;-61
2023/01/04 05:39:54;;;;;;;3.00;0.90;;;;;;;10.38;73.86;101557.34;5023727;28;20049;-60
2023/01/04 05:42:25;;;;;;;4.43;0.98;;;;;;;10.37;73.98;101544.94;5011541;28;20058;-60
2023/01/04 05:44:53;;;;;;;2.85;1.20;;;;;;;10.37;73.55;101558.38;5019622;28;20140;-61
2023/01/04 05:47:21;;;;;;;2.30;0.90;;;;;;;10.38;73.22;101545.78;5021531;28;20060;-60
2023/01/04 05:49:51;;;;;;;2.75;0.68;;;;;;;10.37;73.49;101536.06;5026715;28;20109;-61
2023/01/04 05:52:19;;;;;;;5.18;1.25;;;;;;;10.36;73.93;101537.91;5031047;28;20124;-62
2023/01/04 05:54:47;;;;;;;2.97;0.80;;;;;;;10.39;73.89;101540.19;5019029;28;20053;-61
2023/01/04 05:57:16;;;;;;;2.70;1.15;;;;;;;10.39;74.01;101528.63;5021025;28;20052;-59
2023/01/04 05:59:44;;;;;;;3.00;0.90;;;;;;;10.41;73.81;101529.22;5025092;28;20084;-59
2023/01/04 06:02:16;;;;;;;2.30;0.95;;;;;;;10.39;73.65;101534.81;4672210;28;10000583;-60
2023/01/04 06:04:45;;;;;;;4.47;0.88;;;;;;;10.39;73.56;101520.56;5018960;28;20065;-60
2023/01/04 06:07:14;;;;;;;1.70;0.90;;;;;;;10.40;74.00;101535.66;5021504;28;20054;-58
2023/01/04 06:09:42;;;;;;;4.38;1.10;;;;;;;10.31;74.24;101529.66;5078818;28;20052;-60
2023/01/04 06:12:10;;;;;;;2.15;0.90;;;;;;;10.47;74.19;101536.47;5103698;28;20071;-59
2023/01/04 06:14:39;;;;;;;1.50;0.82;;;;;;;10.46;73.51;101540.19;5100605;28;20050;-58
2023/01/04 06:17:08;;;;;;;1.75;0.82;;;;;;;10.45;73.63;101525.09;5102278;28;20060;-60
2023/01/04 06:19:36;;;;;;;2.67;1.10;;;;;;;10.46;74.01;101547.41;5099535;28;20051;-60
2023/01/04 06:22:04;;;;;;;0.80;0.80;;;;;;;10.44;73.72;101539.56;5102608;28;20111;-60
2023/01/04 06:24:34;;;;;;;1.73;0.75;;;;;;;10.43;74.01;101536.03;5102548;28;20098;-57
2023/01/04 06:27:02;;;;;;;1.65;0.80;;;;;;;10.43;73.92;101540.59;5094059;28;20162;-58
2023/01/04 06:29:30;;;;;;;2.28;1.08;;;;;;;10.44;73.75;101526.94;5098792;28;20044;-60
2023/01/04 06:31:58;;;;;;;3.38;1.23;;;;;;;10.44;74.11;101536.88;5101420;28;20050;-60
2023/01/04 06:34:26;;;;;;;4.03;0.93;;;;;;;10.43;73.84;101536.03;5097521;28;20119;-59
2023/01/04 06:36:58;;;;;;;2.95;1.02;;;;;;;10.45;74.04;101535.84;5098322;28;20047;-61
2023/01/04 06:39:26;;;;;;;2.25;1.20;;;;;;;10.46;74.13;101523.22;5100135;28;20161;-57
2023/01/04 06:41:55;;;;;;;1.95;0.70;;;;;;;10.44;74.03;101518.88;5102563;28;20370;-61
2023/01/04 06:44:32;;;;;;;1.52;0.73;;;;;;;10.47;74.14;101520.34;5096444;28;20056;-60
2023/01/04 06:47:00;;;;;;;2.42;0.70;;;;;;;10.46;73.87;101515.16;5097681;28;20173;-62
2023/01/04 06:49:28;;;;;;;2.97;0.90;;;;;;;10.48;74.37;101521.16;5100130;28;20048;-61
2023/01/04 06:51:55;;;;;;;2.22;0.82;;;;;;;10.49;74.44;101514.75;5101718;28;20054;-60
2023/01/04 06:54:23;;;;;;;3.28;1.00;;;;;;;10.47;74.25;101527.56;5097459;28;20054;-61
2023/01/04 06:56:51;;;;;;;4.65;1.10;;;;;;;10.53;74.40;101521.38;5102272;28;20052;-62
2023/01/04 06:59:20;;;;;;;2.55;0.70;;;;;;;10.50;74.36;101527.16;5100949;28;20052;-57
2023/01/04 07:01:48;;;;;;;1.63;0.90;;;;;;;10.49;74.43;101515.59;5093217;28;20044;-61
2023/01/04 07:04:16;;;;;;;2.50;0.70;;;;;;;10.48;74.61;101516.63;5097883;28;20500;-61
2023/01/04 07:06:44;;;;;;;1.00;0.68;;;;;;;10.50;74.99;101511.03;5100501;28;20087;-58
2023/01/04 07:09:12;;;;;;;1.17;0.60;;;;;;;10.50;74.84;101505.66;5101939;28;20048;-60
2023/01/04 07:11:40;;;;;;;2.20;0.93;;;;;;;10.50;74.69;101500.28;5094252;28;20546;-61
2023/01/04 07:14:07;;;;;;;1.55;0.70;;;;;;;10.49;74.60;101512.91;5100681;28;20064;-61
2023/01/04 07:16:37;;;;;;;1.08;0.70;;;;;;;10.49;74.62;101518.28;5049924;28;1133766;-59
2023/01/04 07:19:05;;;;;;;1.17;0.80;;;;;;;10.53;75.04;101491.81;5101439;28;20511;-62
2023/01/04 07:21:33;;;;;;;3.03;0.70;;;;;;;10.60;74.86;101514.16;5101529;28;20043;-60
2023/01/04 07:24:01;;;;;;;0.75;0.50;;;;;;;10.71;74.53;101503.63;5103796;28;20518;-60
2023/01/04 07:26:29;;;;;;;2.13;0.95;;;;;;;10.65;74.59;101485.63;5091607;28;20063;-63
2023/01/04 07:29:15;;;;;;;2.42;0.65;;;;;;;10.59;74.46;101467.63;5104274;28;20083;-60
2023/01/04 07:31:47;;;;;;;2.55;0.75;;;;;;;10.64;74.31;101478.59;5103747;28;20047;-62
2023/01/04 07:34:16;;;;;;;2.75;0.90;;;;;;;10.70;74.50;101474.25;5108413;28;20044;-57
2023/01/04 07:36:44;;;;;;;1.35;0.52;;;;;;;10.65;74.23;101469.50;5101378;28;20121;-61
2023/01/04 07:39:12;;;;;;;1.33;0.70;;;;;;;10.63;74.30;101465.34;5098373;28;20056;-61
2023/01/04 07:41:41;;;;;;;4.18;1.00;;;;;;;10.68;74.34;101469.09;5110372;28;20043;-61
2023/01/04 07:44:10;;;;;;;0.63;0.60;;;;;;;10.62;74.35;101461.84;5098958;28;20074;-61
2023/01/04 07:46:39;;;;;;;3.20;0.93;;;;;;;10.62;74.72;101458.31;5101825;28;20124;-61
2023/01/04 07:49:11;;;;;;;1.15;0.80;;;;;;;10.69;74.63;101465.34;5104799;28;20075;-61
2023/01/04 07:51:45;;;;;;;2.33;0.80;;;;;;;10.67;74.49;101459.34;5110326;28;20058;-59
2023/01/04 07:54:13;;;;;;;4.15;0.80;;;;;;;10.68;74.32;101466.38;5091779;28;20052;-57
2023/01/04 07:56:41;;;;;;;2.13;1.00;;;;;;;10.70;74.23;101466.19;5100223;28;20072;-61
2023/01/04 07:59:11;;;;;;;5.00;0.70;;;;;;;10.72;74.65;101464.13;5104364;28;20056;-58
2023/01/04 08:01:39;;;;;;;3.17;0.80;;;;;;;10.62;74.01;101456.47;5101068;28;20132;-58
2023/01/04 08:04:10;;;;;;;1.67;0.63;;;;;;;10.70;74.16;101464.31;5112153;28;20074;-60
2023/01/04 08:06:39;;;;;;;3.20;0.88;;;;;;;10.71;74.13;101451.72;5101980;28;20363;-61
2023/01/04 08:09:07;;;;;;;2.55;1.08;;;;;;;10.71;74.28;101451.72;5107468;28;20062;-60
2023/01/04 08:11:35;;;;;;;4.78;1.02;;;;;;;10.68;74.52;101449.44;5105408;28;20040;-59
2023/01/04 08:14:04;;;;;;;5.80;1.27;;;;;;;10.81;74.72;101456.66;5107398;28;20134;-57
2023/01/04 08:16:33;;;;;;;1.58;0.70;;;;;;;10.82;73.94;101469.91;5103372;28;20166;-60
2023/01/04 08:19:04;;;;;;;2.00;0.70;;;;;;;10.95;74.79;101459.13;5112851;28;20089;-60
2023/01/04 08:21:35;;;;;;;1.95;0.70;;;;;;;10.86;73.84;101468.44;5093250;28;20144;-57
2023/01/04 08:24:04;;;;;;;1.23;0.70;;;;;;;10.81;74.42;101465.56;5111684;28;20083;-57
2023/01/04 08:26:32;;;;;;;1.90;0.75;;;;;;;10.96;74.28;101476.09;5101590;28;20047;-61
2023/01/04 08:29:00;;;;;;;1.48;0.68;;;;;;;10.83;74.28;101478.78;5094092;28;20040;-65
2023/01/04 08:31:31;;;;;;;2.67;0.70;;;;;;;10.79;74.32;101491.00;5102542;28;20610;-61
2023/01/04 08:34:07;;;;;;;6.10;0.85;;;;;;;10.79;74.52;101486.44;5101998;28;20070;-61
2023/01/04 08:36:44;;;;;;;2.35;0.85;;;;;;;10.74;74.57;101484.38;5105762;28;20132;-61
2023/01/04 08:39:12;;;;;;;3.35;0.80;;;;;;;10.78;74.79;101487.47;5100597;28;20048;-63
2023/01/04 08:41:50;;;;;;;1.95;0.75;;;;;;;10.82;74.75;101486.03;5108959;28;20261;-61
2023/01/04 08:44:38;;;;;;;3.88;1.15;;;;;;;10.80;74.85;101488.09;5098021;28;20523;-61
2023/01/04 08:47:06;;;;;;;2.85;0.98;;;;;;;10.80;74.88;101468.47;5085837;28;20048;-55
2023/01/04 08:49:34;;;;;;;3.60;0.90;;;;;;;10.89;74.57;101486.03;5105266;28;20059;-61
2023/01/04 08:52:03;;;;;;;1.80;0.75;;;;;;;11.06;74.27;101476.50;5105384;28;20048;-61
2023/01/04 08:54:32;;;;;;;3.05;0.95;;;;;;;11.25;73.40;101488.25;5090948;28;20051;-61
2023/01/04 08:57:00;;;;;;;2.20;1.08;;;;;;;11.42;72.66;101489.44;5100281;28;20076;-61
2023/01/04 08:59:28;;;;;;;2.08;0.70;;;;;;;11.55;72.36;101473.25;5103602;28;20084;-61
2023/01/04 09:01:56;;;;;;;3.13;0.85;;;;;;;11.81;71.56;101490.38;5104714;28;20131;-60
2023/01/04 09:04:32;;;;;;;3.40;0.88;;;;;;;12.00;70.94;101489.44;5102892;28;20048;-60
2023/01/04 09:07:00;;;;;;;1.60;0.90;;;;;;;12.18;70.32;101484.13;5105055;28;20078;-61
2023/01/04 09:09:29;;;;;;;3.30;0.88;;;;;;;12.38;69.86;101476.75;5104893;28;20112;-61
2023/01/04 09:11:58;;;;;;;1.65;1.00;;;;;;;12.49;69.16;101480.59;5103674;28;20054;-60
2023/01/04 09:14:26;;;;;;;1.50;0.55;;;;;;;12.56;68.54;101485.94;5103876;28;20050;-60
2023/01/04 09:16:54;;;;;;;3.50;1.25;;;;;;;12.67;68.07;101482.53;5097133;28;20143;-61
2023/01/04 09:19:22;;;;;;;3.10;0.88;;;;;;;12.73;68.13;101478.97;5104571;28;20127;-61
2023/01/04 09:21:50;;;;;;;1.50;0.70;;;;;;;12.84;67.65;101480.94;5090139;28;20048;-61
2023/01/04 09:24:18;;;;;;;2.67;0.82;;;;;;;12.84;67.69;101474.72;5104556;28;20074;-61
2023/01/04 09:26:47;;;;;;;3.47;1.13;;;;;;;12.85;68.00;101473.69;5104556;28;20040;-61
2023/01/04 09:29:16;;;;;;;2.75;1.38;;;;;;;12.89;68.18;101472.19;5101586;28;20051;-54
2023/01/04 09:31:43;;;;;;;2.10;1.23;;;;;;;12.91;67.81;101492.50;5104198;28;20074;-52
2023/01/04 09:34:12;;;;;;;3.35;0.88;;;;;;;12.99;67.53;101489.53;5103818;28;20091;-61
2023/01/04 09:36:44;;;;;;;0.82;0.60;;;;;;;13.00;67.77;101491.16;5096224;28;20123;-60
2023/01/04 09:39:12;;;;;;;2.03;0.55;;;;;;;12.96;67.47;101489.97;5103896;28;20090;-61
2023/01/04 09:41:56;;;;;;;2.38;0.77;;;;;;;12.99;67.55;101486.81;5104253;28;20047;-61
2023/01/04 09:44:36;;;;;;;1.00;0.47;;;;;;;13.09;67.83;101483.63;5093113;28;20051;-61
2023/01/04 09:47:35;;;;;;;5.25;1.35;;;;;;;13.13;67.29;101484.00;5102686;28;20059;-61
2023/01/04 09:50:09;;;;;;;2.90;0.80;;;;;;;13.06;67.51;101478.66;5091817;28;20075;-61
2023/01/04 09:52:49;;;;;;;1.92;0.75;;;;;;;13.00;67.91;101479.56;5104380;28;20048;-60
2023/01/04 09:55:20;;;;;;;2.90;0.95;;;;;;;12.74;68.64;101488.72;5102245;28;20052;-60
2023/01/04 09:58:17;;;;;;;1.02;0.68;;;;;;;12.53;69.40;101497.16;5096907;28;20078;-61
2023/01/04 10:00:46;;;;;;;1.27;0.68;;;;;;;12.35;70.19;101489.84;5102453;28;20082;-60
2023/01/04 10:03:19;;;;;;;2.70;0.77;;;;;;;12.18;70.73;101494.91;5102442;28;20059;-61
2023/01/04 10:05:48;;;;;;;3.20;1.13;;;;;;;12.12;71.64;101481.50;5103804;28;20078;-61
2023/01/04 10:08:18;;;;;;;3.60;1.15;;;;;;;12.05;71.66;101486.94;5104493;28;20380;-61
2023/01/04 10:10:50;;;;;;;3.25;0.90;;;;;;;11.98;71.89;101478.88;5099064;28;20052;-61
2023/01/04 10:13:48;;;;;;;1.35;0.70;;;;;;;11.92;71.84;101473.53;5103786;28;20048;-61
2023/01/04 10:16:27;;;;;;;2.25;0.60;;;;;;;11.85;72.29;101481.66;5102877;28;20079;-60
2023/01/04 10:19:30;;;;;;;2.75;1.00;;;;;;;11.94;72.38;101466.06;5101349;28;20052;-61
2023/01/04 10:22:25;;;;;;;1.15;0.75;;;;;;;11.80;72.96;101476.09;5103650;28;20401;-61
2023/01/04 10:25:07;;;;;;;1.20;0.73;;;;;;;11.76;73.03;101476.69;5098321;28;20111;-60
2023/01/04 10:27:46;;;;;;;4.90;1.15;;;;;;;11.72;73.24;101458.28;5097306;28;20044;-62
2023/01/04 10:30:35;;;;;;;2.00;1.00;;;;;;;11.60;73.39;101454.59;5105053;28;20054;-60
2023/01/04 10:33:10;;;;;;;2.65;1.05;;;;;;;11.65;73.27;101473.63;5103443;28;20048;-60
2023/01/04 10:35:42;;;;;;;2.53;0.93;;;;;;;11.62;73.84;101481.31;5092949;28;20048;-61
2023/01/04 10:38:19;;;;;;;3.17;1.05;;;;;;;11.65;73.61;101462.03;5089709;28;20060;-61
2023/01/04 10:40:49;;;;;;;2.97;0.80;;;;;;;11.62;73.97;101455.22;5097590;28;20396;-56
2023/01/04 10:43:33;;;;;;;2.28;0.80;;;;;;;11.57;73.89;101457.72;5103274;28;20044;-61
2023/01/04 10:46:26;;;;;;;4.03;0.90;;;;;;;11.59;74.13;101454.81;5113166;28;20063;-61
2023/01/04 10:49:00;;;;;;;2.88;0.93;;;;;;;11.73;74.07;101451.84;5107362;28;20432;-61
2023/01/04 10:51:35;;;;;;;5.18;1.60;;;;;;;11.61;74.15;101453.56;5107098;28;20078;-61
2023/01/04 10:54:10;;;;;;;3.03;1.10;;;;;;;11.63;74.35;101429.94;5103478;28;20052;-60
2023/01/04 10:56:44;;;;;;;4.05;0.77;;;;;;;11.60;74.06;101445.69;5101004;28;20044;-61
2023/01/04 10:59:19;;;;;;;3.58;1.13;;;;;;;11.61;74.14;101437.41;5106106;28;20054;-59
2023/01/04 11:01:53;;;;;;;1.33;0.70;;;;;;;11.57;74.60;101444.25;5102460;28;20143;-60
2023/01/04 11:04:27;;;;;;;3.67;1.60;;;;;;;11.61;74.41;101432.03;5102626;28;20123;-58
2023/01/04 11:07:02;;;;;;;0.68;0.60;;;;;;;11.62;74.37;101439.06;5099009;28;20047;-59
2023/01/04 11:09:38;;;;;;;1.60;0.93;;;;;;;11.59;74.53;101435.97;5106427;28;20278;-60
2023/01/04 11:12:09;;;;;;;3.30;0.90;;;;;;;11.63;74.63;101434.50;5106854;28;20071;-60
2023/01/04 11:14:37;;;;;;;1.95;0.68;;;;;;;11.74;74.16;101433.81;5101703;28;20055;-61
2023/01/04 11:17:10;;;;;;;1.63;0.75;;;;;;;11.61;74.50;101429.31;5101498;28;20063;-60
2023/01/04 11:19:39;;;;;;;2.30;0.80;;;;;;;11.55;74.94;101451.72;5106929;28;20356;-61
2023/01/04 11:22:14;;;;;;;2.97;1.15;;;;;;;11.53;74.91;101436.81;5095104;28;20048;-57
2023/01/04 11:24:45;;;;;;;1.63;0.75;;;;;;;11.51;75.05;101431.66;5097728;28;20052;-61
2023/01/04 11:27:41;;;;;;;2.33;0.80;;;;;;;11.50;75.12;101442.63;5094650;28;20447;-61
2023/01/04 11:30:17;;;;;;;1.90;0.80;;;;;;;11.51;75.35;101449.66;5092636;28;20074;-61
2023/01/04 11:32:54;;;;;;;2.00;0.68;;;;;;;11.58;75.29;101437.00;5097791;28;20054;-60
2023/01/04 11:35:42;;;;;;;1.70;1.02;;;;;;;11.51;75.37;101439.72;5099721;28;20059;-60
2023/01/04 11:38:14;;;;;;;1.70;0.82;;;;;;;11.49;75.50;101447.19;5104754;28;20076;-60
2023/01/04 11:40:53;;;;;;;2.90;0.75;;;;;;;11.49;75.33;101444.50;5105907;28;20051;-60
2023/01/04 11:43:22;;;;;;;2.72;1.13;;;;;;;11.57;75.69;101441.56;5106518;28;20151;-61
2023/01/04 11:45:56;;;;;;;2.10;0.95;;;;;;;11.51;75.60;101437.03;5103536;28;20553;-60
2023/01/04 11:48:40;;;;;;;1.02;0.60;;;;;;;11.51;75.86;101438.91;5108254;28;20048;-60
2023/01/04 11:51:20;;;;;;;1.25;0.68;;;;;;;11.51;75.60;101452.34;5103833;28;20070;-60
2023/01/04 11:53:57;;;;;;;1.92;0.70;;;;;;;11.61;75.55;101442.78;5100823;28;20077;-60
2023/01/04 11:56:28;;;;;;;1.08;0.60;;;;;;;11.55;75.54;101440.94;5095104;28;20491;-59
2023/01/04 11:59:12;;;;;;;1.02;0.75;;;;;;;11.57;75.47;101441.56;5095322;28;20111;-60
2023/01/04 12:01:44;;;;;;;1.00;0.68;;;;;;;11.54;75.58;101447.38;5103519;28;20063;-59
2023/01/04 12:04:18;;;;;;;0.95;0.57;;;;;;;11.53;75.92;101440.34;5102862;28;20061;-60
2023/01/04 12:06:50;;;;;;;1.48;0.60;;;;;;;11.46;75.91;101433.31;5105859;28;20136;-60
2023/01/04 12:09:20;;;;;;;1.10;0.90;;;;;;;11.51;76.06;101431.66;5099598;28;20497;-59
2023/01/04 12:11:50;;;;;;;1.80;0.73;;;;;;;11.51;76.02;101430.81;5104966;28;20073;-59
2023/01/04 12:14:22;;;;;;;3.92;0.60;;;;;;;11.57;75.98;101428.09;5104523;28;20070;-53
2023/01/04 12:17:00;;;;;;;1.10;0.55;;;;;;;11.55;76.33;101423.97;5103676;28;20513;-59
2023/01/04 12:19:30;;;;;;;3.00;0.95;;;;;;;11.53;76.29;101432.25;5100333;28;20124;-60
2023/01/04 12:22:02;;;;;;;1.67;0.70;;;;;;;11.52;76.10;101441.38;5103169;28;20142;-60
2023/01/04 12:24:32;;;;;;;2.17;0.93;;;;;;;11.53;75.81;101447.59;5105160;28;20184;-59
2023/01/04 12:27:01;;;;;;;2.17;0.80;;;;;;;11.53;76.26;101431.44;5105546;28;20083;-61
2023/01/04 12:29:44;;;;;;;0.60;0.55;;;;;;;11.53;76.19;101448.41;5094405;28;20044;-60
2023/01/04 12:32:39;;;;;;;1.00;0.60;;;;;;;11.53;76.17;101448.41;5103656;28;20060;-61